createdAt,value
2022-12-11T00:00:24.574Z,99934.41
2022-12-11T00:01:24.980Z,99930.28
2022-12-11T00:02:25.557Z,99932.47
2022-12-11T00:03:25.893Z,99931.66
2022-12-11T00:04:26.440Z,99931.5
2022-12-11T00:05:26.552Z,99933.97
2022-12-11T00:06:26.858Z,99932.68
2022-12-11T00:07:27.478Z,99929.72
2022-12-11T00:08:27.734Z,99928.47
2022-12-11T00:09:28.010Z,99929.23
2022-12-11T00:10:30.208Z,99929.27
2022-12-11T00:11:28.852Z,99928.09
2022-12-11T00:12:32.013Z,99931.88
2022-12-11T00:13:29.883Z,99930.94
2022-12-11T00:14:30.391Z,99931.23
2022-12-11T00:15:30.520Z,99933.38
2022-12-11T00:16:30.775Z,99934.42
2022-12-11T00:17:31.029Z,99930.81
2022-12-11T00:18:31.646Z,99935.92
2022-12-11T00:19:31.860Z,99933.45
2022-12-11T00:20:32.375Z,99932.83
2022-12-11T00:21:32.913Z,99933.73
2022-12-11T00:22:32.910Z,99935.51
2022-12-11T00:23:35.369Z,99935.99
2022-12-11T00:24:33.841Z,99939.24
2022-12-11T00:25:34.150Z,99940.09
2022-12-11T00:26:34.566Z,99938.16
2022-12-11T00:27:34.858Z,99942.8
2022-12-11T00:28:35.807Z,99941.83
2022-12-11T00:29:35.739Z,99939.33
2022-12-11T00:30:42.483Z,99938.97
2022-12-11T00:31:40.465Z,99942.2
2022-12-11T00:32:40.245Z,99939.05
2022-12-11T00:33:40.548Z,99938.81
2022-12-11T00:34:40.971Z,99934.7
2022-12-11T00:35:43.229Z,99938.84
2022-12-11T00:36:41.901Z,99938.55
2022-12-11T00:37:42.270Z,99942.12
2022-12-11T00:38:42.807Z,99942.43
2022-12-11T00:39:42.962Z,99944.22
2022-12-11T00:40:43.675Z,99948.27
2022-12-11T00:41:43.681Z,99949.25
2022-12-11T00:42:44.199Z,99948.4
2022-12-11T00:43:44.841Z,99949.54
2022-12-11T00:44:44.899Z,99945.64
2022-12-11T00:45:47.395Z,99950.62
2022-12-11T00:46:45.668Z,99945.05
2022-12-11T00:47:46.078Z,99952.78
2022-12-11T00:48:46.610Z,99953.75
2022-12-11T00:49:50.029Z,99946.05
2022-12-11T00:50:47.842Z,99949.61
2022-12-11T00:51:48.048Z,99952.21
2022-12-11T00:52:48.564Z,99960.49
2022-12-11T00:53:49.089Z,99959.41
2022-12-11T00:54:49.271Z,99960.27
2022-12-11T00:55:49.705Z,99960.03
2022-12-11T00:56:50.130Z,99959.5
2022-12-11T00:57:52.177Z,99964.31
2022-12-11T00:58:51.260Z,99960.1
2022-12-11T00:59:51.062Z,99965.85
2022-12-11T01:00:52.619Z,99961.56
2022-12-11T01:01:51.896Z,99965.5
2022-12-11T01:02:52.289Z,99961.77
2022-12-11T01:03:53.552Z,99959.62
2022-12-11T01:04:53.461Z,99962.12
2022-12-11T01:05:54.910Z,99964.53
2022-12-11T01:06:53.773Z,99959.27
2022-12-11T01:07:54.317Z,99959.79
2022-12-11T01:08:55.013Z,99959.66
2022-12-11T01:09:54.929Z,99956.47
2022-12-11T01:11:03.531Z,99957.36
2022-12-11T01:11:55.960Z,99960.75
2022-12-11T01:13:58.956Z,99954.16
2022-12-11T01:14:59.461Z,99949.7
2022-12-11T01:16:00.092Z,99950.38
2022-12-11T01:17:00.294Z,99949.25
2022-12-11T01:18:00.611Z,99946.29
2022-12-11T01:19:00.921Z,99944.7
2022-12-11T01:20:01.356Z,99945.32
2022-12-11T01:21:09.426Z,99949.58
2022-12-11T01:22:06.877Z,99949.58
2022-12-11T01:23:07.495Z,99951.65
2022-12-11T01:24:07.501Z,99949.82
2022-12-11T01:25:09.236Z,99950.02
2022-12-11T01:26:13.771Z,99950.15
2022-12-11T01:27:11.221Z,99948.36
2022-12-11T01:28:11.529Z,99949.26
2022-12-11T01:29:11.740Z,99949.38
2022-12-11T01:30:13.381Z,99947.67
2022-12-11T01:31:15.006Z,99949.86
2022-12-11T01:32:12.981Z,99942.12
2022-12-11T01:33:13.314Z,99948.8
2022-12-11T01:34:13.622Z,99943.71
2022-12-11T01:35:14.248Z,99943.39
2022-12-11T01:36:19.674Z,99945.16
2022-12-11T01:37:17.025Z,99945.09
2022-12-11T01:38:17.301Z,99946.91
2022-12-11T01:39:17.650Z,99950.23
2022-12-11T01:40:20.112Z,99945.17
2022-12-11T01:41:19.314Z,99946.26
2022-12-11T01:42:20.591Z,99948.25
2022-12-11T01:43:19.410Z,99952.82
2022-12-11T01:46:24.992Z,99954.24
2022-12-11T01:47:24.833Z,99954.8
2022-12-11T01:48:29.265Z,99956.14
2022-12-11T01:49:28.967Z,99958.21
2022-12-11T01:50:28.867Z,99957.81
2022-12-11T01:51:29.610Z,99960.45
2022-12-11T01:52:27.928Z,99955.5
2022-12-11T01:54:32.790Z,99956.11
2022-12-11T01:55:33.217Z,99953.63
2022-12-11T01:56:35.973Z,99957.36
2022-12-11T01:57:33.329Z,99958.33
2022-12-11T01:58:40.909Z,99959.34
2022-12-11T01:59:41.229Z,99959.75
2022-12-11T02:00:38.571Z,99960.24
2022-12-11T02:01:48.006Z,99960.77
2022-12-11T02:02:40.471Z,99959.88
2022-12-11T02:03:41.038Z,99957.12
2022-12-11T02:05:41.670Z,99955.3
2022-12-11T02:06:45.158Z,99953.55
2022-12-11T02:07:49.865Z,99951.86
2022-12-11T02:08:47.331Z,99952.79
2022-12-11T02:09:48.561Z,99953.96
2022-12-11T02:14:05.442Z,99951.73
2022-12-11T02:30:43.572Z,99954.04
2022-12-11T02:35:50.780Z,99944.03
2022-12-11T02:36:53.451Z,99943.22
2022-12-11T02:37:57.955Z,99944.64
2022-12-11T02:38:58.897Z,99946.78
2022-12-11T02:39:57.771Z,99940.22
2022-12-11T02:40:59.538Z,99938.16
2022-12-11T02:41:58.391Z,99939.49
2022-12-11T02:43:01.680Z,99942.36
2022-12-11T02:44:02.088Z,99941.79
2022-12-11T02:45:01.799Z,99944.31
2022-12-11T02:46:03.498Z,99945.11
2022-12-11T02:47:02.927Z,99941.22
2022-12-11T02:48:04.169Z,99941.43
2022-12-11T02:50:08.078Z,99933.53
2022-12-11T02:51:07.980Z,99934.1
2022-12-11T02:52:07.468Z,99934.02
2022-12-11T02:53:08.199Z,99933.28
2022-12-11T02:54:10.754Z,99937.94
2022-12-11T02:55:11.255Z,99938.11
2022-12-11T02:59:23.794Z,99921.42
2022-12-11T03:00:21.042Z,99920.89
2022-12-11T03:01:22.443Z,99922.32
2022-12-11T03:02:21.897Z,99915.27
2022-12-11T03:03:23.111Z,99920.81
2022-12-11T03:04:22.811Z,99918.02
2022-12-11T03:05:23.133Z,99922.64
2022-12-11T03:06:32.140Z,99922.16
2022-12-11T03:07:32.249Z,99923.66
2022-12-11T03:08:24.803Z,99923.41
2022-12-11T03:09:25.199Z,99919.03
2022-12-11T03:10:25.529Z,99923.69
2022-12-11T03:11:25.722Z,99921.02
2022-12-11T03:12:32.395Z,99918.78
2022-12-11T03:13:29.947Z,99921.12
2022-12-11T03:14:30.352Z,99919.5
2022-12-11T03:15:40.610Z,99920.84
2022-12-11T03:29:14.061Z,99919.21
2022-12-11T03:30:14.279Z,99918.2
2022-12-11T03:36:27.226Z,99908.62
2022-12-11T03:37:28.871Z,99910.07
2022-12-11T03:40:32.868Z,99915.02
2022-12-11T03:41:33.695Z,99913.39
2022-12-11T03:42:32.791Z,99915.5
2022-12-11T03:43:33.411Z,99914
2022-12-11T03:44:34.137Z,99915.91
2022-12-11T03:45:33.727Z,99914.16
2022-12-11T03:46:38.872Z,99915.71
2022-12-11T03:47:38.462Z,99923.09
2022-12-11T03:48:40.201Z,99915.16
2022-12-11T03:49:42.144Z,99919.66
2022-12-11T03:50:42.054Z,99920.33
2022-12-11T03:51:41.668Z,99917.16
2022-12-11T03:52:46.371Z,99912.38
2022-12-11T03:53:45.767Z,99908.25
2022-12-11T03:54:49.143Z,99907.93
2022-12-11T03:55:49.671Z,99908.82
2022-12-11T03:56:51.209Z,99908.98
2022-12-11T03:57:49.267Z,99907.97
2022-12-11T03:58:49.050Z,99904.44
2022-12-11T03:59:50.194Z,99907.4
2022-12-11T04:00:49.795Z,99905.41
2022-12-11T04:01:50.490Z,99906.78
2022-12-11T04:02:50.939Z,99908.5
2022-12-11T04:03:50.943Z,99909.92
2022-12-11T04:04:51.229Z,99906.56
2022-12-11T04:05:53.929Z,99913.64
2022-12-11T04:06:52.107Z,99909.02
2022-12-11T04:07:52.416Z,99910.14
2022-12-11T04:08:52.828Z,99911.97
2022-12-11T04:09:53.148Z,99912.38
2022-12-11T04:10:53.761Z,99908.17
2022-12-11T04:11:53.963Z,99908.12
2022-12-11T04:12:54.273Z,99912.23
2022-12-11T04:13:54.795Z,99907.62
2022-12-11T04:14:55.119Z,99911.39
2022-12-11T04:15:55.432Z,99907.69
2022-12-11T04:16:56.968Z,99908.07
2022-12-11T04:17:56.469Z,99909.52
2022-12-11T04:18:56.577Z,99905.82
2022-12-11T04:19:57.102Z,99910
2022-12-11T04:20:57.619Z,99904.56
2022-12-11T04:21:57.932Z,99909.17
2022-12-11T04:22:58.250Z,99909.78
2022-12-11T04:23:58.662Z,99907.28
2022-12-11T04:25:00.413Z,99904.36
2022-12-11T04:26:08.499Z,99897.95
2022-12-11T04:27:00.822Z,99906.14
2022-12-11T04:28:01.137Z,99907.23
2022-12-11T04:29:01.770Z,99906.98
2022-12-11T04:30:03.511Z,99912.88
2022-12-11T04:31:03.556Z,99904.58
2022-12-11T04:32:02.697Z,99904.91
2022-12-11T04:33:04.036Z,99906.65
2022-12-11T04:34:03.533Z,99906.12
2022-12-11T04:35:04.778Z,99902.66
2022-12-11T04:36:06.000Z,99906.12
2022-12-11T04:37:05.500Z,99905.95
2022-12-11T04:38:05.919Z,99905.3
2022-12-11T04:39:06.229Z,99909.24
2022-12-11T04:40:09.109Z,99910.45
2022-12-11T04:41:12.790Z,99917.27
2022-12-11T04:42:10.456Z,99915.27
2022-12-11T04:43:11.180Z,99916.33
2022-12-11T04:44:11.692Z,99916.46
2022-12-11T04:45:13.102Z,99918.97
2022-12-11T04:46:19.983Z,99917.3
2022-12-11T04:47:17.752Z,99920.68
2022-12-11T04:48:17.860Z,99919.25
2022-12-11T04:49:18.278Z,99924.52
2022-12-11T04:50:18.599Z,99924.61
2022-12-11T04:51:19.618Z,99922.22
2022-12-11T04:52:19.321Z,99922.3
2022-12-11T04:53:19.728Z,99921.91
2022-12-11T04:54:20.350Z,99921.42
2022-12-11T04:55:20.581Z,99922.83
2022-12-11T04:56:21.487Z,99921.41
2022-12-11T04:57:21.304Z,99920.34
2022-12-11T04:58:22.322Z,99921.12
2022-12-11T04:59:22.331Z,99919.11
2022-12-11T05:00:22.440Z,99917.23
2022-12-11T05:01:23.707Z,99922.09
2022-12-11T05:02:23.329Z,99923.39
2022-12-11T05:03:23.571Z,99921.73
2022-12-11T05:04:24.214Z,99923.34
2022-12-11T05:05:24.532Z,99925.28
2022-12-11T05:06:24.841Z,99922.38
2022-12-11T05:07:25.151Z,99924.34
2022-12-11T05:08:25.702Z,99926.17
2022-12-11T05:09:26.700Z,99923.34
2022-12-11T05:10:26.398Z,99924.33
2022-12-11T05:11:26.831Z,99921.7
2022-12-11T05:12:27.692Z,99920.33
2022-12-11T05:13:28.877Z,99922.52
2022-12-11T05:14:27.965Z,99924.62
2022-12-11T05:15:28.400Z,99921.71
2022-12-11T05:16:28.935Z,99926.58
2022-12-11T05:17:29.212Z,99926.23
2022-12-11T05:18:29.536Z,99927.01
2022-12-11T05:19:29.950Z,99926.75
2022-12-11T05:20:30.238Z,99925.39
2022-12-11T05:21:35.042Z,99930.23
2022-12-11T05:22:32.721Z,99926.11
2022-12-11T05:23:33.661Z,99932.52
2022-12-11T05:24:33.569Z,99930.91
2022-12-11T05:25:33.987Z,99935.53
2022-12-11T05:26:34.507Z,99941.97
2022-12-11T05:27:34.828Z,99937.91
2022-12-11T05:28:36.876Z,99943.07
2022-12-11T05:29:35.748Z,99947.02
2022-12-11T05:30:35.847Z,99944.33
2022-12-11T05:31:36.397Z,99947.2
2022-12-11T05:32:36.661Z,99946.44
2022-12-11T05:33:37.088Z,99941.81
2022-12-11T05:34:37.626Z,99942.12
2022-12-11T05:35:37.928Z,99943.63
2022-12-11T05:36:38.865Z,99941.33
2022-12-11T05:37:38.766Z,99943.97
2022-12-11T05:38:39.072Z,99942.4
2022-12-11T05:39:39.607Z,99942.52
2022-12-11T05:40:39.785Z,99940.97
2022-12-11T05:41:40.327Z,99943.12
2022-12-11T05:42:40.645Z,99943.17
2022-12-11T05:43:41.259Z,99942.07
2022-12-11T05:44:41.387Z,99940.77
2022-12-11T05:45:41.781Z,99943.47
2022-12-11T05:46:42.365Z,99939.25
2022-12-11T05:47:44.665Z,99938.11
2022-12-11T05:48:44.361Z,99937.06
2022-12-11T05:49:43.347Z,99937.8
2022-12-11T05:50:43.761Z,99944.91
2022-12-11T05:51:44.278Z,99940.08
2022-12-11T05:52:44.510Z,99931.59
2022-12-11T05:53:46.313Z,99935.53
2022-12-11T05:54:49.132Z,99932.72
2022-12-11T05:55:46.688Z,99932.02
2022-12-11T05:56:50.265Z,99928.12
2022-12-11T05:57:48.006Z,99928.2
2022-12-11T05:58:50.067Z,99926.55
2022-12-11T05:59:49.454Z,99930.24
2022-12-11T06:00:49.985Z,99925.72
2022-12-11T06:01:50.421Z,99923.32
2022-12-11T06:02:50.796Z,99922.75
2022-12-11T06:03:51.025Z,99919.28
2022-12-11T06:04:51.446Z,99923.48
2022-12-11T06:05:51.844Z,99922.02
2022-12-11T06:06:55.030Z,99925.43
2022-12-11T06:07:52.621Z,99926.21
2022-12-11T06:08:54.221Z,99932.2
2022-12-11T06:09:53.305Z,99929.5
2022-12-11T06:10:53.927Z,99935.78
2022-12-11T06:11:54.148Z,99934.31
2022-12-11T06:12:54.666Z,99935.68
2022-12-11T06:13:55.609Z,99936.61
2022-12-11T06:14:55.405Z,99935.85
2022-12-11T06:15:56.025Z,99934.22
2022-12-11T06:16:56.127Z,99932.2
2022-12-11T06:17:56.533Z,99936.02
2022-12-11T06:18:58.656Z,99933.22
2022-12-11T06:19:57.878Z,99933.09
2022-12-11T06:20:58.504Z,99931.12
2022-12-11T06:21:58.803Z,99936.38
2022-12-11T06:22:59.743Z,99938.51
2022-12-11T06:24:02.007Z,99936.27
2022-12-11T06:24:59.965Z,99937.51
2022-12-11T06:26:00.375Z,99945.38
2022-12-11T06:27:00.485Z,99938.27
2022-12-11T06:28:01.207Z,99936.59
2022-12-11T06:29:01.418Z,99941.96
2022-12-11T06:30:01.924Z,99938.76
2022-12-11T06:31:03.274Z,99943.48
2022-12-11T06:32:02.862Z,99941.01
2022-12-11T06:33:03.188Z,99939.67
2022-12-11T06:34:03.489Z,99942.95
2022-12-11T06:35:04.424Z,99944.69
2022-12-11T06:36:06.386Z,99946.18
2022-12-11T06:37:04.549Z,99943.53
2022-12-11T06:38:04.959Z,99945.27
2022-12-11T06:39:05.449Z,99948.8
2022-12-11T06:40:07.285Z,99949.5
2022-12-11T06:41:08.128Z,99949.77
2022-12-11T06:42:07.355Z,99949.84
2022-12-11T06:43:07.864Z,99953.98
2022-12-11T06:44:08.185Z,99958.85
2022-12-11T06:45:10.103Z,99960.58
2022-12-11T06:46:14.820Z,99961.62
2022-12-11T06:47:12.191Z,99964.8
2022-12-11T06:48:12.602Z,99967.8
2022-12-11T06:49:13.330Z,99967.03
2022-12-11T06:50:13.433Z,99966.3
2022-12-11T06:51:19.509Z,99966.78
2022-12-11T06:52:18.703Z,99966.06
2022-12-11T06:53:17.367Z,99966.59
2022-12-11T06:54:17.764Z,99966.09
2022-12-11T06:55:18.181Z,99963.48
2022-12-11T06:56:18.391Z,99965.69
2022-12-11T06:57:19.206Z,99959.76
2022-12-11T06:58:19.222Z,99962.98
2022-12-11T06:59:19.843Z,99962.73
2022-12-11T07:00:20.568Z,99965.14
2022-12-11T07:01:23.736Z,99962.64
2022-12-11T07:02:21.848Z,99963.12
2022-12-11T07:03:21.612Z,99960.04
2022-12-11T07:04:22.144Z,99963.01
2022-12-11T07:05:22.552Z,99957.59
2022-12-11T07:06:23.585Z,99957.64
2022-12-11T07:07:23.284Z,99962.88
2022-12-11T07:08:23.668Z,99958.61
2022-12-11T07:09:25.031Z,99957.77
2022-12-11T07:10:25.048Z,99961.88
2022-12-11T07:11:25.566Z,99963.77
2022-12-11T07:12:25.968Z,99962.66
2022-12-11T07:13:26.390Z,99959.72
2022-12-11T07:14:26.700Z,99959.42
2022-12-11T07:15:27.222Z,99957.66
2022-12-11T07:16:28.011Z,99955.03
2022-12-11T07:17:29.365Z,99951.22
2022-12-11T07:18:28.986Z,99954.64
2022-12-11T07:19:28.688Z,99951.8
2022-12-11T07:20:29.107Z,99951.79
2022-12-11T07:21:29.426Z,99953.47
2022-12-11T07:22:29.728Z,99955.8
2022-12-11T07:23:30.548Z,99954.48
2022-12-11T07:24:31.278Z,99957.35
2022-12-11T07:25:31.586Z,99953.17
2022-12-11T07:26:32.105Z,99957.32
2022-12-11T07:27:32.426Z,99955.45
2022-12-11T07:28:33.250Z,99957.72
2022-12-11T07:29:33.558Z,99958.7
2022-12-11T07:30:33.693Z,99959.09
2022-12-11T07:31:34.244Z,99962.95
2022-12-11T07:32:34.306Z,99961.72
2022-12-11T07:33:35.748Z,99966.67
2022-12-11T07:34:35.126Z,99966.42
2022-12-11T07:35:36.267Z,99965.96
2022-12-11T07:36:35.865Z,99971.27
2022-12-11T07:37:36.613Z,99970.59
2022-12-11T07:38:36.893Z,99971.64
2022-12-11T07:39:37.427Z,99970.62
2022-12-11T07:40:37.627Z,99975.55
2022-12-11T07:41:37.847Z,99974.59
2022-12-11T07:42:42.803Z,99981.98
2022-12-11T07:43:44.201Z,99974.98
2022-12-11T07:44:43.605Z,99981.48
2022-12-11T07:45:44.111Z,99980.95
2022-12-11T07:46:44.423Z,99979.05
2022-12-11T07:47:44.837Z,99980.33
2022-12-11T07:48:47.610Z,99979.56
2022-12-11T07:49:45.585Z,99978.19
2022-12-11T07:50:45.984Z,99982.68
2022-12-11T07:51:46.498Z,99976.55
2022-12-11T07:52:46.824Z,99978.12
2022-12-11T07:53:49.492Z,99983.27
2022-12-11T07:54:47.668Z,99975.88
2022-12-11T07:55:47.862Z,99983.03
2022-12-11T07:56:53.185Z,99978.28
2022-12-11T07:57:51.255Z,99978.37
2022-12-11T07:58:51.668Z,99982.22
2022-12-11T07:59:52.090Z,99978.75
2022-12-11T08:00:52.423Z,99985.28
2022-12-11T08:01:52.933Z,99976.62
2022-12-11T08:02:53.172Z,99979.32
2022-12-11T08:03:54.592Z,99981.77
2022-12-11T08:04:54.065Z,99982.73
2022-12-11T08:05:54.382Z,99982.19
2022-12-11T08:06:54.811Z,99987.87
2022-12-11T08:07:55.343Z,99984.66
2022-12-11T08:08:56.856Z,99983.84
2022-12-11T08:09:55.945Z,99982.59
2022-12-11T08:10:56.267Z,99985.05
2022-12-11T08:11:56.877Z,99985.74
2022-12-11T08:12:59.849Z,99978.61
2022-12-11T08:13:59.140Z,99974.33
2022-12-11T08:14:58.227Z,99980.66
2022-12-11T08:15:58.645Z,99980.64
2022-12-11T08:16:58.705Z,99982.89
2022-12-11T08:17:59.067Z,99981.95
2022-12-11T08:18:59.582Z,99985.3
2022-12-11T08:19:59.792Z,99981.44
2022-12-11T08:21:04.414Z,99974.94
2022-12-11T08:22:01.868Z,99975.36
2022-12-11T08:23:02.065Z,99975.05
2022-12-11T08:24:03.425Z,99973.3
2022-12-11T08:25:04.231Z,99975.85
2022-12-11T08:26:05.904Z,99969.45
2022-12-11T08:27:04.345Z,99973.05
2022-12-11T08:28:05.480Z,99968.64
2022-12-11T08:29:05.288Z,99969.91
2022-12-11T08:30:07.345Z,99968.2
2022-12-11T08:31:10.172Z,99969.44
2022-12-11T08:32:12.099Z,99974.48
2022-12-11T08:33:09.917Z,99965.92
2022-12-11T08:34:10.346Z,99966.7
2022-12-11T08:35:11.017Z,99966.67
2022-12-11T08:36:14.645Z,99964.62
2022-12-11T08:37:11.974Z,99958.65
2022-12-11T08:38:12.301Z,99965.83
2022-12-11T08:39:12.826Z,99965.17
2022-12-11T08:40:13.567Z,99961.99
2022-12-11T08:41:18.788Z,99960.59
2022-12-11T08:42:16.232Z,99955.18
2022-12-11T08:43:16.445Z,99955.12
2022-12-11T08:44:17.203Z,99955.52
2022-12-11T08:45:17.489Z,99956.44
2022-12-11T08:46:17.874Z,99955.88
2022-12-11T08:47:18.198Z,99958.33
2022-12-11T08:48:18.411Z,99957.14
2022-12-11T08:49:19.147Z,99956.58
2022-12-11T08:50:19.450Z,99961.05
2022-12-11T08:51:22.318Z,99952.02
2022-12-11T08:52:19.974Z,99954.19
2022-12-11T08:53:20.496Z,99959.73
2022-12-11T08:54:20.903Z,99954.41
2022-12-11T08:55:21.229Z,99955.96
2022-12-11T08:56:21.844Z,99953.95
2022-12-11T08:57:22.266Z,99947.62
2022-12-11T08:58:22.369Z,99942.87
2022-12-11T08:59:22.684Z,99941.55
2022-12-11T09:00:23.109Z,99945.95
2022-12-11T09:01:27.913Z,99948.3
2022-12-11T09:02:25.510Z,99942.89
2022-12-11T09:03:25.889Z,99941.72
2022-12-11T09:04:26.094Z,99938.97
2022-12-11T09:05:26.611Z,99944.73
2022-12-11T09:06:28.975Z,99939.18
2022-12-11T09:07:27.565Z,99936.85
2022-12-11T09:08:27.786Z,99941.2
2022-12-11T09:09:28.072Z,99941.91
2022-12-11T09:10:28.507Z,99937.92
2022-12-11T09:11:31.703Z,99938.33
2022-12-11T09:12:29.735Z,99935.05
2022-12-11T09:13:29.848Z,99935.8
2022-12-11T09:14:30.056Z,99938.7
2022-12-11T09:15:30.548Z,99939.55
2022-12-11T09:16:31.308Z,99942.32
2022-12-11T09:17:31.194Z,99938.91
2022-12-11T09:18:31.618Z,99935.61
2022-12-11T09:19:32.620Z,99941.34
2022-12-11T09:20:32.443Z,99936.81
2022-12-11T09:21:32.867Z,99931.52
2022-12-11T09:22:33.479Z,99937.79
2022-12-11T09:23:33.909Z,99936.47
2022-12-11T09:24:34.227Z,99940.38
2022-12-11T09:25:34.475Z,99931.39
2022-12-11T09:26:34.640Z,99933.25
2022-12-11T09:27:35.385Z,99930.88
2022-12-11T09:28:35.576Z,99931.16
2022-12-11T09:29:36.208Z,99932.78
2022-12-11T09:30:36.270Z,99931.67
2022-12-11T09:31:37.634Z,99934.84
2022-12-11T09:32:37.050Z,99932.02
2022-12-11T09:33:37.568Z,99936.34
2022-12-11T09:34:38.485Z,99929.17
2022-12-11T09:35:38.992Z,99933.73
2022-12-11T09:36:41.367Z,99935.59
2022-12-11T09:37:39.749Z,99930.06
2022-12-11T09:38:40.046Z,99929.13
2022-12-11T09:39:40.453Z,99930.19
2022-12-11T09:40:42.407Z,99923.09
2022-12-11T09:47:01.402Z,99913.73
2022-12-11T09:48:02.214Z,99918.52
2022-12-11T09:49:03.865Z,99912.97
2022-12-11T09:54:19.458Z,99914.59
2022-12-11T09:55:22.536Z,99913.41
2022-12-11T10:09:03.386Z,99906.72
2022-12-11T10:18:19.924Z,99907.67
2022-12-11T10:21:21.379Z,99904.86
2022-12-11T10:25:40.267Z,99895.17
2022-12-11T10:26:39.758Z,99891.33
2022-12-11T10:27:40.267Z,99894.5
2022-12-11T10:28:38.529Z,99889.83
2022-12-11T10:29:39.357Z,99892.54
2022-12-11T10:30:45.365Z,99892.4
2022-12-11T10:31:53.496Z,99891.05
2022-12-11T10:34:59.669Z,99887.91
2022-12-11T10:35:55.151Z,99885.45
2022-12-11T10:37:00.170Z,99889.05
2022-12-11T10:37:58.865Z,99878.44
2022-12-11T10:38:56.617Z,99887.97
2022-12-11T10:39:56.826Z,99881.2
2022-12-11T10:42:14.567Z,99884.77
2022-12-11T10:43:01.965Z,99884.06
2022-12-11T10:44:16.206Z,99882.83
2022-12-11T10:45:05.665Z,99881.44
2022-12-11T10:46:05.847Z,99874.92
2022-12-11T10:47:12.233Z,99874.71
2022-12-11T10:48:15.307Z,99873.38
2022-12-11T10:50:08.563Z,99873.33
2022-12-11T10:51:08.268Z,99880.31
2022-12-11T10:56:15.856Z,99878.38
2022-12-11T10:57:16.393Z,99877.67
2022-12-11T10:58:20.209Z,99878.41
2022-12-11T10:59:30.027Z,99874.07
2022-12-11T11:01:28.921Z,99874.42
2022-12-11T11:02:31.269Z,99874.52
2022-12-11T11:03:29.131Z,99872.25
2022-12-11T11:04:37.023Z,99872.45
2022-12-11T11:05:35.584Z,99869.35
2022-12-11T11:06:33.560Z,99873.27
2022-12-11T11:07:33.477Z,99877.45
2022-12-11T11:08:46.262Z,99876.53
2022-12-11T11:09:38.806Z,99874.35
2022-12-11T11:10:49.248Z,99869.44
2022-12-11T11:11:50.884Z,99871.26
2022-12-11T11:12:46.408Z,99867.52
2022-12-11T11:13:43.941Z,99864.97
2022-12-11T11:14:44.474Z,99862.12
2022-12-11T11:15:45.571Z,99861.7
2022-12-11T11:16:47.240Z,99859.47
2022-12-11T11:17:55.131Z,99858.31
2022-12-11T11:18:56.054Z,99852.02
2022-12-11T11:20:04.366Z,99850.78
2022-12-11T11:20:57.188Z,99849.05
2022-12-11T11:22:01.096Z,99846.66
2022-12-11T11:23:01.935Z,99843.8
2022-12-11T11:23:59.669Z,99844.1
2022-12-11T11:25:00.096Z,99850.38
2022-12-11T11:26:02.148Z,99845.91
2022-12-11T11:27:16.750Z,99846.52
2022-12-11T11:29:05.347Z,99844.48
2022-12-11T11:31:13.298Z,99850
2022-12-11T11:32:19.472Z,99847.58
2022-12-11T11:34:20.427Z,99847.8
2022-12-11T11:35:25.142Z,99849.36
2022-12-11T11:36:30.687Z,99844.83
2022-12-11T11:37:34.187Z,99847.08
2022-12-11T11:39:38.285Z,99841.74
2022-12-11T11:40:37.063Z,99840.91
2022-12-11T11:45:55.690Z,99840.4
2022-12-11T11:51:08.155Z,99838.33
2022-12-11T11:58:27.139Z,99841.08
2022-12-11T12:00:33.619Z,99837.39
2022-12-11T12:01:32.581Z,99839.3
2022-12-11T12:02:32.023Z,99839.66
2022-12-11T12:03:32.313Z,99836.95
2022-12-11T12:04:35.086Z,99835.93
2022-12-11T12:16:01.868Z,99814.52
2022-12-11T12:44:23.272Z,99765.42
2022-12-11T12:47:30.839Z,99749.05
2022-12-11T12:48:29.129Z,99755.67
2022-12-11T12:50:41.310Z,99748.48
2022-12-11T12:51:34.037Z,99745.83
2022-12-11T12:52:39.652Z,99747.89
2022-12-11T12:53:37.649Z,99752.78
2022-12-11T12:54:38.954Z,99747.59
2022-12-11T12:55:37.960Z,99754.27
2022-12-11T12:56:38.742Z,99753.38
2022-12-11T12:57:45.344Z,99755.98
2022-12-11T12:58:45.771Z,99750.43
2022-12-11T12:59:53.850Z,99750.55
2022-12-11T13:00:46.562Z,99751.02
2022-12-11T13:01:50.059Z,99745.86
2022-12-11T13:02:51.421Z,99738.05
2022-12-11T13:06:58.105Z,99738.72
2022-12-11T13:08:01.730Z,99735.45
2022-12-11T13:19:39.050Z,99718.7
2022-12-11T13:21:38.950Z,99715.05
2022-12-11T13:23:40.191Z,99714.82
2022-12-11T13:26:46.668Z,99715.27
2022-12-11T13:27:46.568Z,99712.27
2022-12-11T13:28:48.386Z,99717.62
2022-12-11T13:29:47.410Z,99707.62
2022-12-11T13:31:58.531Z,99709.23
2022-12-11T13:34:03.497Z,99700.75
2022-12-11T13:34:59.203Z,99711.59
2022-12-11T13:36:58.928Z,99702.94
2022-12-11T13:46:26.821Z,99689.44
2022-12-11T13:47:25.307Z,99685
2022-12-11T13:49:28.687Z,99685.67
2022-12-11T13:50:31.885Z,99688.65
2022-12-11T13:51:32.284Z,99686.36
2022-12-11T13:52:29.829Z,99689.05
2022-12-11T13:53:30.166Z,99687.98
2022-12-11T13:54:32.785Z,99684.67
2022-12-11T13:55:35.384Z,99686.3
2022-12-11T13:56:32.733Z,99680.97
2022-12-11T13:57:33.368Z,99681.2
2022-12-11T13:58:39.909Z,99683.39
2022-12-11T13:59:42.164Z,99684.62
2022-12-11T14:00:39.963Z,99682.77
2022-12-11T14:01:40.145Z,99688.65
2022-12-11T14:02:41.453Z,99681.86
2022-12-11T14:04:45.302Z,99682.32
2022-12-11T14:05:44.222Z,99674.22
2022-12-11T14:06:44.694Z,99672.3
2022-12-11T14:08:51.756Z,99670.88
2022-12-11T14:09:49.506Z,99659.89
2022-12-11T14:10:55.767Z,99649.27
2022-12-11T14:11:56.907Z,99656.98
2022-12-11T14:13:59.884Z,99649.34
2022-12-11T14:14:59.776Z,99649.59
2022-12-11T14:15:57.730Z,99649.09
2022-12-11T14:16:58.165Z,99651.31
2022-12-11T14:17:59.793Z,99644.95
2022-12-11T14:19:07.585Z,99655.22
2022-12-11T14:20:03.184Z,99639.88
2022-12-11T14:21:04.227Z,99642.06
2022-12-11T14:22:05.353Z,99646.41
2022-12-11T14:24:06.086Z,99636.27
2022-12-11T14:27:17.363Z,99628.33
2022-12-11T14:28:17.352Z,99615.34
2022-12-11T14:36:33.293Z,99618.83
2022-12-11T14:37:34.127Z,99609.64
2022-12-11T14:39:46.216Z,99605.16
2022-12-11T14:40:42.645Z,99600.41
2022-12-11T14:42:44.291Z,99609.25
2022-12-11T14:45:50.337Z,99599.67
2022-12-11T14:46:56.404Z,99592.88
2022-12-11T14:47:50.985Z,99599.16
2022-12-11T14:52:00.118Z,99599.7
2022-12-11T14:54:01.975Z,99592.45
2022-12-11T14:56:08.006Z,99601.11
2022-12-11T14:57:06.921Z,99598.62
2022-12-11T15:03:23.440Z,99593.09
2022-12-11T15:05:24.166Z,99581.98
2022-12-11T15:07:26.540Z,99581.17
2022-12-11T15:11:36.768Z,99572.88
2022-12-11T15:15:47.588Z,99564.83
2022-12-11T15:16:46.711Z,99562.53
2022-12-11T15:17:52.468Z,99559.55
2022-12-11T15:18:52.531Z,99558.27
2022-12-11T15:19:53.866Z,99558.09
2022-12-11T15:20:53.960Z,99557.23
2022-12-11T15:21:53.466Z,99555
2022-12-11T15:22:53.562Z,99556.14
2022-12-11T15:23:56.547Z,99554.71
2022-12-11T15:24:55.227Z,99541.47
2022-12-11T15:25:57.781Z,99547
2022-12-11T15:26:59.028Z,99539.16
2022-12-11T15:27:59.347Z,99540.97
2022-12-11T15:29:01.185Z,99539.59
2022-12-11T15:29:58.959Z,99532.59
2022-12-11T15:31:02.562Z,99531.52
2022-12-11T15:33:18.008Z,99523.48
2022-12-11T15:39:20.087Z,99504.36
2022-12-11T15:40:20.922Z,99502.84
2022-12-11T15:41:21.255Z,99507.2
2022-12-11T15:43:24.946Z,99490.45
2022-12-11T15:44:25.129Z,99489.09
2022-12-11T15:45:27.278Z,99493.94
2022-12-11T15:46:25.990Z,99488.69
2022-12-11T15:47:29.049Z,99487.09